Time;durP1;ratioP1;P1;durP2;ratioP2;P2;SDS_P1;SDS_P2;PMS_P1;PMS_P2;Temp;Humidity;BMP_temperature;BMP_pressure;BME280_temperature;BME280_humidity;BME280_pressure;Samples;Min_cycle;Max_cycle;Signal;HPM_P1;HPM_P2
2023/07/16 00:00:04;;;;;;;3.60;3.00;;;;;;;20.56;100.00;100021.94;4995217;28;21984;-74
2023/07/16 00:02:31;;;;;;;3.45;2.55;;;;;;;20.39;100.00;100011.06;5015180;28;20052;-74
2023/07/16 00:04:57;;;;;;;4.10;2.80;;;;;;;20.33;100.00;100031.25;5001791;28;20082;-75
2023/07/16 00:07:24;;;;;;;5.10;2.97;;;;;;;20.24;100.00;100026.75;5000636;28;20066;-76
2023/07/16 00:09:51;;;;;;;4.53;3.10;;;;;;;20.10;100.00;99985.03;4997720;28;20128;-75
2023/07/16 00:12:17;;;;;;;5.95;3.30;;;;;;;20.17;100.00;99961.09;5007990;28;20061;-75
2023/07/16 00:14:44;;;;;;;4.90;3.53;;;;;;;20.09;100.00;99940.31;5003663;28;20146;-76
2023/07/16 00:17:11;;;;;;;4.47;3.42;;;;;;;20.00;100.00;99986.00;5004368;28;20045;-75
2023/07/16 00:19:38;;;;;;;3.63;3.08;;;;;;;20.05;100.00;99986.44;4999516;28;20053;-76
2023/07/16 00:22:05;;;;;;;5.18;3.20;;;;;;;20.04;100.00;99974.84;5002180;28;20045;-74
2023/07/16 00:24:31;;;;;;;3.95;2.85;;;;;;;20.12;100.00;100004.56;5006026;28;20370;-74
2023/07/16 00:26:58;;;;;;;4.07;2.95;;;;;;;19.99;100.00;99970.91;5001390;28;20509;-74
2023/07/16 00:29:25;;;;;;;4.10;3.03;;;;;;;20.01;100.00;100010.06;4995217;28;20117;-74
2023/07/16 00:31:51;;;;;;;3.90;2.90;;;;;;;19.99;100.00;100014.72;5007455;28;20042;-73
2023/07/16 00:34:18;;;;;;;4.05;2.75;;;;;;;19.89;100.00;99995.06;5007126;28;20292;-75
2023/07/16 00:36:45;;;;;;;4.00;2.55;;;;;;;19.76;100.00;99994.50;5007449;28;20696;-74
2023/07/16 00:39:13;;;;;;;3.45;2.90;;;;;;;19.64;100.00;99991.09;4997336;28;20096;-74
2023/07/16 00:41:40;;;;;;;4.55;3.15;;;;;;;19.65;100.00;100006.22;5008537;28;20133;-75
2023/07/16 00:44:07;;;;;;;3.25;2.45;;;;;;;19.66;100.00;99994.50;5001748;28;20041;-75
2023/07/16 00:46:38;;;;;;;4.80;2.80;;;;;;;19.64;100.00;100009.91;5009986;28;20129;-75
2023/07/16 00:49:05;;;;;;;4.47;2.90;;;;;;;19.56;100.00;100023.16;5006440;28;20083;-74
2023/07/16 00:51:32;;;;;;;5.32;3.00;;;;;;;19.49;100.00;100033.63;5008023;28;20045;-74
2023/07/16 00:53:59;;;;;;;4.95;2.80;;;;;;;19.51;100.00;100058.50;5004203;28;20052;-74
2023/07/16 00:56:29;;;;;;;3.72;2.40;;;;;;;19.51;100.00;100063.03;5005739;28;20057;-75
2023/07/16 00:58:57;;;;;;;4.27;2.50;;;;;;;19.52;100.00;100049.44;4978817;28;20506;-75
2023/07/16 01:01:23;;;;;;;4.60;2.20;;;;;;;19.51;100.00;100047.75;5007928;28;20453;-74
2023/07/16 01:03:51;;;;;;;5.82;2.40;;;;;;;19.48;100.00;100031.88;5005480;28;20111;-74
2023/07/16 01:06:40;;;;;;;7.45;2.45;;;;;;;19.50;100.00;100023.72;4990329;28;20042;-74
2023/07/16 01:09:10;;;;;;;4.47;3.10;;;;;;;19.51;100.00;100025.44;4992781;28;20057;-74
2023/07/16 01:11:39;;;;;;;3.50;2.38;;;;;;;19.45;100.00;100032.16;5014828;28;20042;-75
2023/07/16 01:14:09;;;;;;;3.50;2.25;;;;;;;19.34;100.00;100016.16;5008745;28;20180;-75
2023/07/16 01:16:36;;;;;;;2.95;1.95;;;;;;;19.36;100.00;100005.28;5002228;28;20046;-74
2023/07/16 01:19:03;;;;;;;2.35;2.15;;;;;;;19.49;100.00;100025.56;4999866;28;20105;-75
2023/07/16 01:22:10;;;;;;;3.30;2.30;;;;;;;19.49;100.00;100054.22;4998269;28;20803;-74
2023/07/16 01:25:04;;;;;;;4.55;2.28;;;;;;;19.47;100.00;100058.88;5002809;28;20046;-77
2023/07/16 01:27:59;;;;;;;4.05;2.20;;;;;;;19.44;100.00;100065.38;5011803;28;20050;-74
2023/07/16 01:30:28;;;;;;;4.82;2.17;;;;;;;19.52;100.00;100070.06;5000402;28;20050;-74
2023/07/16 01:33:06;;;;;;;2.30;2.00;;;;;;;19.59;100.00;100069.41;5006187;28;20076;-73
2023/07/16 01:35:34;;;;;;;5.72;2.20;;;;;;;19.46;100.00;100059.84;5009262;28;20125;-73
2023/07/16 01:38:01;;;;;;;2.72;2.17;;;;;;;19.53;100.00;100082.50;5004236;28;20088;-73
2023/07/16 01:40:30;;;;;;;3.05;2.17;;;;;;;19.43;100.00;100071.72;4990180;28;20128;-73
2023/07/16 01:42:56;;;;;;;5.10;2.30;;;;;;;19.49;100.00;100086.44;5007101;28;20054;-73
2023/07/16 01:45:27;;;;;;;5.00;2.28;;;;;;;19.47;100.00;100093.78;5007117;28;20039;-73
2023/07/16 01:48:00;;;;;;;3.88;2.38;;;;;;;19.38;100.00;100106.16;5006909;28;20524;-73
2023/07/16 01:50:27;;;;;;;4.63;2.00;;;;;;;19.27;100.00;100112.50;5014418;28;20069;-73
2023/07/16 01:52:54;;;;;;;3.53;1.95;;;;;;;19.18;100.00;100097.22;5008586;28;20056;-75
2023/07/16 01:55:20;;;;;;;3.50;2.20;;;;;;;19.24;100.00;100114.59;5021619;28;20039;-74
2023/07/16 01:57:47;;;;;;;4.20;2.60;;;;;;;19.14;100.00;100109.19;5020766;28;20045;-74
2023/07/16 02:00:15;;;;;;;3.28;2.20;;;;;;;19.05;100.00;100112.66;5014003;28;20495;-75
2023/07/16 02:02:41;;;;;;;3.63;2.10;;;;;;;19.00;100.00;100112.22;5021468;28;20038;-73
2023/07/16 02:05:08;;;;;;;3.22;2.15;;;;;;;18.88;100.00;100103.41;5022555;28;20038;-74
2023/07/16 02:07:36;;;;;;;4.38;2.05;;;;;;;19.03;100.00;100105.75;5021143;28;20031;-74
2023/07/16 02:10:02;;;;;;;5.13;2.00;;;;;;;19.19;100.00;100119.53;5017836;28;20076;-76
2023/07/16 02:12:30;;;;;;;4.00;2.13;;;;;;;19.13;100.00;100120.91;5024279;28;20110;-74
2023/07/16 02:14:56;;;;;;;3.75;2.00;;;;;;;19.14;100.00;100111.88;5016691;28;20072;-73
2023/07/16 02:17:24;;;;;;;3.47;2.25;;;;;;;19.23;100.00;100126.31;5019528;28;20122;-73
2023/07/16 02:19:50;;;;;;;3.67;2.10;;;;;;;19.29;100.00;100133.84;5011245;28;20172;-74
2023/07/16 02:22:17;;;;;;;3.58;1.95;;;;;;;19.32;100.00;100133.59;5012934;28;20160;-73
2023/07/16 02:24:43;;;;;;;4.20;1.58;;;;;;;19.40;100.00;100116.78;5012770;28;20046;-75
2023/07/16 02:27:10;;;;;;;4.45;2.45;;;;;;;19.35;100.00;100121.72;5007548;28;20101;-74
2023/07/16 02:29:37;;;;;;;4.03;2.05;;;;;;;19.25;100.00;100116.28;5006493;28;20104;-74
2023/07/16 02:32:04;;;;;;;3.95;2.08;;;;;;;19.22;100.00;100125.47;5012999;28;20050;-74
2023/07/16 02:34:30;;;;;;;3.40;1.90;;;;;;;19.21;100.00;100139.00;5022931;28;20042;-74
2023/07/16 02:36:58;;;;;;;3.13;1.98;;;;;;;19.17;100.00;100145.66;5021422;28;20045;-74
2023/07/16 02:39:25;;;;;;;5.35;1.95;;;;;;;19.07;100.00;100139.34;5013295;28;20648;-75
2023/07/16 02:41:52;;;;;;;2.72;1.95;;;;;;;19.09;100.00;100150.81;5029469;28;20066;-75
2023/07/16 02:44:18;;;;;;;3.25;2.15;;;;;;;19.15;100.00;100164.56;5021282;28;20125;-73
2023/07/16 02:46:45;;;;;;;4.20;2.30;;;;;;;19.10;100.00;100153.38;5010586;28;20133;-74
2023/07/16 02:49:12;;;;;;;4.57;2.13;;;;;;;19.08;100.00;100158.00;5008551;28;20486;-75
2023/07/16 02:51:38;;;;;;;4.25;1.83;;;;;;;18.88;100.00;100140.97;5004120;28;20052;-74
2023/07/16 02:54:05;;;;;;;5.43;2.20;;;;;;;18.98;100.00;100167.84;5010723;28;20124;-74
2023/07/16 02:56:32;;;;;;;4.43;2.08;;;;;;;18.93;100.00;100176.28;5007414;28;20137;-74
2023/07/16 02:58:59;;;;;;;4.53;2.20;;;;;;;18.94;100.00;100169.09;5005307;28;20090;-75
2023/07/16 03:01:26;;;;;;;3.88;1.88;;;;;;;18.95;100.00;100173.47;5004008;28;20054;-74
2023/07/16 03:03:53;;;;;;;4.57;2.17;;;;;;;18.82;100.00;100168.31;5006996;28;20129;-74
2023/07/16 03:06:19;;;;;;;4.25;2.30;;;;;;;18.79;100.00;100163.19;5001230;28;20057;-74
2023/07/16 03:08:48;;;;;;;6.53;2.35;;;;;;;18.71;100.00;100152.28;5007464;28;20046;-74
2023/07/16 03:11:19;;;;;;;5.68;2.20;;;;;;;18.79;100.00;100173.06;5009458;28;20061;-73
2023/07/16 03:13:46;;;;;;;5.60;2.03;;;;;;;18.75;100.00;100169.78;5004860;28;20089;-76
2023/07/16 03:16:13;;;;;;;4.72;2.60;;;;;;;18.77;100.00;100177.72;4998688;28;20092;-75
2023/07/16 03:18:40;;;;;;;6.72;2.40;;;;;;;18.76;100.00;100173.31;5005407;28;20049;-75
2023/07/16 03:21:07;;;;;;;4.75;2.58;;;;;;;18.75;100.00;100177.84;5013706;28;20510;-75
2023/07/16 03:23:35;;;;;;;4.05;2.30;;;;;;;18.71;100.00;100176.41;5016718;28;20128;-75
2023/07/16 03:26:02;;;;;;;3.80;2.40;;;;;;;18.64;100.00;100177.91;5006779;28;20164;-75
2023/07/16 03:28:29;;;;;;;3.60;2.20;;;;;;;18.63;100.00;100183.38;5022581;28;20073;-74
2023/07/16 03:30:56;;;;;;;4.40;2.50;;;;;;;18.53;100.00;100162.69;5020025;28;20070;-75
2023/07/16 03:33:23;;;;;;;7.57;2.25;;;;;;;18.66;100.00;100192.03;5023230;28;20061;-77
2023/07/16 03:35:49;;;;;;;9.20;2.70;;;;;;;18.61;100.00;100186.19;5018745;28;20137;-75
2023/07/16 03:38:16;;;;;;;4.95;2.22;;;;;;;18.62;100.00;100205.81;5032995;28;20046;-74
2023/07/16 03:40:46;;;;;;;6.78;2.50;;;;;;;18.45;100.00;100175.84;5025700;28;20053;-74
2023/07/16 03:43:17;;;;;;;3.47;2.50;;;;;;;18.55;100.00;100218.88;5016518;28;20124;-75
2023/07/16 03:45:45;;;;;;;3.30;2.67;;;;;;;18.50;100.00;100195.09;5010176;28;20046;-75
2023/07/16 03:48:14;;;;;;;4.20;2.40;;;;;;;18.49;100.00;100197.91;5010692;28;20050;-76
2023/07/16 03:50:41;;;;;;;5.40;2.47;;;;;;;18.52;100.00;100201.19;5009366;28;20116;-76
2023/07/16 03:53:09;;;;;;;4.32;2.60;;;;;;;18.65;100.00;100225.19;5022581;28;20050;-75
2023/07/16 03:55:36;;;;;;;5.35;2.13;;;;;;;18.55;100.00;100209.00;5013386;28;20042;-76
2023/07/16 03:58:03;;;;;;;4.93;2.25;;;;;;;18.64;100.00;100228.00;5011847;28;20068;-75
2023/07/16 04:00:30;;;;;;;4.50;2.38;;;;;;;18.61;100.00;100242.50;5018774;28;20046;-77
2023/07/16 04:02:58;;;;;;;7.70;2.50;;;;;;;18.68;100.00;100235.69;5006965;28;20076;-75
2023/07/16 04:05:25;;;;;;;5.63;2.38;;;;;;;18.72;100.00;100229.09;5001495;28;20046;-75
2023/07/16 04:07:51;;;;;;;4.18;2.55;;;;;;;18.72;100.00;100220.19;5005586;28;20042;-77
2023/07/16 04:10:18;;;;;;;5.68;2.40;;;;;;;18.71;100.00;100232.75;5008455;28;20050;-76
2023/07/16 04:12:45;;;;;;;4.88;2.53;;;;;;;18.60;100.00;100222.03;5000471;28;20088;-75
2023/07/16 04:15:12;;;;;;;4.13;2.70;;;;;;;18.66;100.00;100234.94;5010527;28;20115;-76
2023/07/16 04:17:39;;;;;;;4.93;2.58;;;;;;;18.68;100.00;100238.34;5008419;28;20061;-76
2023/07/16 04:20:06;;;;;;;6.63;2.65;;;;;;;18.62;100.00;100219.22;5007506;28;20047;-76
2023/07/16 04:22:35;;;;;;;7.20;2.75;;;;;;;18.63;100.00;100228.97;5007664;28;20041;-75
2023/07/16 04:25:02;;;;;;;6.10;2.53;;;;;;;18.68;100.00;100245.56;5000457;28;20073;-76
2023/07/16 04:27:29;;;;;;;4.88;2.42;;;;;;;18.69;100.00;100239.22;4994705;28;20118;-76
2023/07/16 04:29:55;;;;;;;5.13;2.50;;;;;;;18.85;100.00;100258.41;5005752;28;20108;-75
2023/07/16 04:32:25;;;;;;;4.35;2.40;;;;;;;18.87;100.00;100246.59;5003591;28;20073;-74
2023/07/16 04:34:54;;;;;;;2.88;2.20;;;;;;;18.84;100.00;100246.84;5004029;28;20057;-75
2023/07/16 04:37:22;;;;;;;7.82;2.15;;;;;;;18.90;100.00;100261.53;4995295;28;20133;-76
2023/07/16 04:39:51;;;;;;;6.68;2.13;;;;;;;19.00;100.00;100267.00;5011845;28;20109;-74
2023/07/16 04:42:18;;;;;;;5.40;2.38;;;;;;;18.98;100.00;100269.81;5008868;28;20136;-74
2023/07/16 04:44:44;;;;;;;6.68;2.25;;;;;;;18.93;100.00;100270.19;5011868;28;20050;-75
2023/07/16 04:47:11;;;;;;;7.10;2.72;;;;;;;18.92;100.00;100265.81;4997665;28;20053;-75
2023/07/16 04:49:38;;;;;;;5.65;2.60;;;;;;;18.92;100.00;100264.97;5006577;28;20483;-75
2023/07/16 04:52:05;;;;;;;4.90;2.42;;;;;;;19.10;100.00;100284.03;4998175;28;20061;-75
2023/07/16 04:54:36;;;;;;;5.55;2.30;;;;;;;18.97;100.00;100260.06;5006644;28;20045;-75
2023/07/16 04:57:07;;;;;;;6.47;2.67;;;;;;;19.01;100.00;100285.66;5001672;28;20057;-75
2023/07/16 04:59:35;;;;;;;7.63;2.45;;;;;;;18.79;100.00;100259.78;5005162;28;20128;-75
2023/07/16 05:02:05;;;;;;;3.90;2.35;;;;;;;18.71;100.00;100251.53;5001938;28;20153;-75
2023/07/16 05:04:33;;;;;;;8.38;2.65;;;;;;;18.96;100.00;100287.88;5016020;28;20577;-76
2023/07/16 05:07:04;;;;;;;5.88;2.50;;;;;;;18.90;100.00;100277.66;4980447;28;20042;-76
2023/07/16 05:09:31;;;;;;;9.55;2.30;;;;;;;19.08;100.00;100283.31;5005251;28;20046;-75
2023/07/16 05:11:58;;;;;;;5.65;2.50;;;;;;;19.05;100.00;100273.69;5004577;28;20050;-75
2023/07/16 05:14:26;;;;;;;4.10;2.28;;;;;;;18.97;100.00;100269.94;5006781;28;20041;-75
2023/07/16 05:16:53;;;;;;;6.45;2.33;;;;;;;19.13;100.00;100292.69;4996481;28;20485;-75
2023/07/16 05:19:20;;;;;;;5.53;2.40;;;;;;;19.20;100.00;100306.47;4987926;28;20122;-75
2023/07/16 05:21:46;;;;;;;7.30;2.58;;;;;;;19.23;100.00;100304.34;5009100;28;20054;-75
2023/07/16 05:24:13;;;;;;;3.72;2.40;;;;;;;19.28;100.00;100320.91;5017561;28;20046;-74
2023/07/16 05:26:40;;;;;;;4.60;2.55;;;;;;;19.31;100.00;100330.56;4990519;28;20101;-75
2023/07/16 05:29:06;;;;;;;4.78;2.47;;;;;;;19.23;100.00;100309.72;4998063;28;20115;-75
2023/07/16 05:31:33;;;;;;;6.30;2.35;;;;;;;19.28;100.00;100328.97;5008785;28;20053;-75
2023/07/16 05:34:01;;;;;;;4.47;2.40;;;;;;;19.35;100.00;100333.84;5002658;28;21173;-75
2023/07/16 05:36:28;;;;;;;5.32;2.65;;;;;;;19.29;100.00;100319.09;5005431;28;20068;-75
2023/07/16 05:38:55;;;;;;;7.38;2.70;;;;;;;19.38;100.00;100344.28;4999821;28;20460;-75
2023/07/16 05:41:21;;;;;;;7.38;2.33;;;;;;;19.38;100.00;100352.34;5002657;28;20137;-75
2023/07/16 05:43:49;;;;;;;6.28;2.15;;;;;;;19.39;100.00;100337.94;5002640;28;20641;-75
2023/07/16 05:46:16;;;;;;;5.38;2.50;;;;;;;19.54;100.00;100344.75;5000933;28;20034;-75
2023/07/16 05:48:43;;;;;;;7.13;2.78;;;;;;;19.58;100.00;100344.34;4997901;28;20048;-76
2023/07/16 05:51:10;;;;;;;6.20;2.25;;;;;;;19.64;100.00;100336.75;5016850;28;20107;-74
2023/07/16 05:53:37;;;;;;;6.18;2.75;;;;;;;19.61;100.00;100338.72;5004142;28;20050;-74
2023/07/16 05:56:04;;;;;;;6.63;2.63;;;;;;;19.67;100.00;100340.06;5007881;28;20100;-75
2023/07/16 05:58:31;;;;;;;6.15;2.45;;;;;;;19.67;100.00;100336.50;4996900;28;20441;-75
2023/07/16 06:00:58;;;;;;;5.57;2.22;;;;;;;19.75;100.00;100340.22;5009636;28;20477;-75
2023/07/16 06:03:24;;;;;;;6.30;2.30;;;;;;;19.90;100.00;100354.19;5010057;28;20049;-75
2023/07/16 06:05:51;;;;;;;6.18;2.13;;;;;;;19.94;100.00;100347.56;5007801;28;20046;-74
2023/07/16 06:08:18;;;;;;;4.97;2.90;;;;;;;19.80;100.00;100355.97;5001395;28;20053;-75
2023/07/16 06:10:45;;;;;;;6.72;2.97;;;;;;;19.85;100.00;100359.09;5015737;28;20054;-74
2023/07/16 06:13:12;;;;;;;5.38;2.40;;;;;;;19.92;100.00;100342.31;5014774;28;20144;-75
2023/07/16 06:15:38;;;;;;;7.00;2.60;;;;;;;20.17;100.00;100361.66;5023481;28;20046;-75
2023/07/16 06:18:05;;;;;;;7.93;3.05;;;;;;;20.13;100.00;100328.00;5012827;28;20105;-75
2023/07/16 06:20:32;;;;;;;7.95;2.95;;;;;;;20.20;100.00;100321.06;5014652;28;20037;-75
2023/07/16 06:22:59;;;;;;;9.15;2.95;;;;;;;20.61;100.00;100350.56;5009086;28;20058;-75
2023/07/16 06:25:25;;;;;;;9.25;2.40;;;;;;;21.03;100.00;100339.59;5017157;28;20128;-74
2023/07/16 06:27:52;;;;;;;5.90;1.98;;;;;;;21.57;100.00;100357.06;5001134;28;20056;-75
2023/07/16 06:30:19;;;;;;;5.45;2.03;;;;;;;21.95;100.00;100354.31;5008942;28;20052;-75
2023/07/16 06:32:45;;;;;;;7.43;2.25;;;;;;;22.34;99.05;100349.69;5005086;28;20088;-75
2023/07/16 06:35:12;;;;;;;8.13;2.33;;;;;;;22.34;93.66;100363.16;5006857;28;20049;-77
2023/07/16 06:37:39;;;;;;;8.73;2.25;;;;;;;22.50;94.68;100361.69;4981362;28;20042;-75
2023/07/16 06:40:07;;;;;;;8.45;2.58;;;;;;;22.54;91.53;100347.72;5001899;28;20137;-75
2023/07/16 06:42:33;;;;;;;9.05;2.90;;;;;;;21.95;93.58;100370.47;5024603;28;20041;-74
2023/07/16 06:45:00;;;;;;;8.20;2.95;;;;;;;21.64;95.10;100368.97;5018547;28;20519;-75
2023/07/16 06:47:27;;;;;;;5.43;3.00;;;;;;;21.13;100.00;100362.00;4998512;28;20286;-75
2023/07/16 06:49:56;;;;;;;6.85;2.70;;;;;;;21.31;100.00;100364.88;4990720;28;20053;-74
2023/07/16 06:52:27;;;;;;;6.38;2.60;;;;;;;21.80;98.13;100374.63;5012702;28;20042;-74
2023/07/16 06:54:56;;;;;;;8.77;2.85;;;;;;;21.87;93.79;100356.91;5010179;28;20049;-74
2023/07/16 06:57:23;;;;;;;6.32;2.67;;;;;;;21.90;93.00;100369.19;4974975;28;20088;-75
2023/07/16 06:59:50;;;;;;;8.18;3.08;;;;;;;22.02;90.77;100376.19;5015250;28;20105;-74
2023/07/16 07:02:18;;;;;;;8.27;2.85;;;;;;;22.27;84.96;100370.13;5002551;28;20053;-75
2023/07/16 07:04:46;;;;;;;8.98;3.20;;;;;;;21.72;84.37;100352.94;5003106;28;20129;-74
2023/07/16 07:07:13;;;;;;;5.72;2.55;;;;;;;21.86;88.49;100365.97;4990807;28;20038;-77
2023/07/16 07:09:39;;;;;;;6.18;3.08;;;;;;;22.44;83.19;100367.66;5000228;28;20073;-76
2023/07/16 07:12:07;;;;;;;7.88;2.92;;;;;;;22.64;76.29;100366.56;5003789;28;20104;-74
2023/07/16 07:14:34;;;;;;;10.52;3.20;;;;;;;22.70;76.48;100376.75;5027749;28;20205;-75
2023/07/16 07:17:02;;;;;;;4.95;2.80;;;;;;;22.72;78.17;100375.59;5013104;28;20212;-76
2023/07/16 07:19:28;;;;;;;6.43;2.88;;;;;;;22.94;69.39;100376.25;5017792;28;20085;-75
2023/07/16 07:21:55;;;;;;;9.82;3.30;;;;;;;22.10;70.82;100349.31;5006571;28;20064;-77
2023/07/16 07:24:22;;;;;;;9.02;3.00;;;;;;;22.39;71.40;100373.50;5019699;28;20041;-76
2023/07/16 07:26:49;;;;;;;7.75;2.80;;;;;;;22.64;69.16;100369.28;5034323;28;20058;-78
2023/07/16 07:29:15;;;;;;;8.23;3.20;;;;;;;23.01;68.64;100359.25;5017526;28;20053;-77
2023/07/16 07:31:42;;;;;;;8.40;2.90;;;;;;;23.44;63.17;100382.00;5030422;28;20079;-76
2023/07/16 07:34:08;;;;;;;5.05;2.80;;;;;;;23.34;61.82;100363.13;5018284;28;20068;-78
2023/07/16 07:36:35;;;;;;;7.55;3.38;;;;;;;23.47;60.55;100391.63;5029041;28;20063;-76
2023/07/16 07:39:02;;;;;;;8.93;3.30;;;;;;;23.63;60.96;100394.50;5015784;28;20042;-76
2023/07/16 07:41:30;;;;;;;6.75;2.97;;;;;;;23.69;57.93;100392.03;5024883;28;20077;-76
2023/07/16 07:43:56;;;;;;;9.77;3.20;;;;;;;23.56;58.84;100391.59;5014390;28;20112;-75
2023/07/16 07:46:23;;;;;;;7.05;2.83;;;;;;;23.83;57.82;100379.81;5034461;28;20050;-77
2023/07/16 07:48:50;;;;;;;7.35;2.78;;;;;;;23.87;56.38;100393.88;5015183;28;20053;-76
2023/07/16 07:51:18;;;;;;;7.20;3.22;;;;;;;23.86;57.71;100397.56;5026557;28;20050;-75
2023/07/16 07:53:45;;;;;;;6.85;3.10;;;;;;;23.95;59.21;100394.75;5029507;28;20060;-77
2023/07/16 07:56:11;;;;;;;6.75;3.33;;;;;;;23.57;57.77;100403.25;5019994;28;20057;-76
2023/07/16 07:58:40;;;;;;;8.30;2.88;;;;;;;23.50;60.71;100386.75;5015262;28;20069;-75
2023/07/16 08:01:07;;;;;;;5.45;2.72;;;;;;;24.01;58.14;100387.88;5015137;28;20106;-77
2023/07/16 08:03:34;;;;;;;9.05;3.00;;;;;;;24.53;55.30;100401.44;5013089;28;20100;-74
2023/07/16 08:06:02;;;;;;;6.53;2.55;;;;;;;24.03;53.24;100391.28;5014377;28;20098;-79
2023/07/16 08:08:29;;;;;;;5.10;2.53;;;;;;;23.51;55.61;100399.31;5030068;28;20042;-75
2023/07/16 08:10:56;;;;;;;8.15;3.03;;;;;;;23.47;54.83;100394.31;5006640;28;20435;-75
2023/07/16 08:13:24;;;;;;;5.75;2.72;;;;;;;23.77;57.57;100410.16;5009413;28;20050;-74
2023/07/16 08:15:51;;;;;;;5.68;2.65;;;;;;;24.16;53.22;100393.56;5017862;28;20053;-74
2023/07/16 08:18:19;;;;;;;7.00;3.10;;;;;;;23.58;54.36;100405.81;5012494;28;20419;-75
2023/07/16 08:20:47;;;;;;;9.10;3.40;;;;;;;23.82;53.96;100383.50;5006686;28;20041;-75
2023/07/16 08:23:15;;;;;;;7.40;2.63;;;;;;;23.91;51.26;100397.97;5007284;28;20069;-74
2023/07/16 08:25:44;;;;;;;5.45;2.72;;;;;;;24.27;51.04;100404.97;5003400;28;20050;-76
2023/07/16 08:28:11;;;;;;;6.53;3.30;;;;;;;23.98;50.50;100402.56;5001352;28;20599;-76
2023/07/16 08:30:38;;;;;;;7.10;3.35;;;;;;;23.59;52.09;100401.25;5008985;28;20561;-77
2023/07/16 08:33:06;;;;;;;6.57;3.38;;;;;;;24.03;51.93;100389.44;4987851;28;20054;-75
2023/07/16 08:35:34;;;;;;;7.97;2.67;;;;;;;24.50;50.57;100393.63;5005687;28;20073;-74
2023/07/16 08:38:01;;;;;;;4.75;2.53;;;;;;;24.71;48.01;100397.59;4999883;28;20054;-75
2023/07/16 08:40:28;;;;;;;7.68;3.00;;;;;;;24.22;50.64;100409.16;5006510;28;20526;-76
2023/07/16 08:42:56;;;;;;;6.30;3.20;;;;;;;23.77;49.96;100418.28;5014776;28;20431;-75
2023/07/16 08:45:28;;;;;;;8.23;3.40;;;;;;;23.41;51.04;100407.47;5010532;28;20087;-75
2023/07/16 08:47:56;;;;;;;7.00;2.88;;;;;;;23.10;53.54;100371.00;4999954;28;20084;-76
2023/07/16 08:50:24;;;;;;;8.65;2.60;;;;;;;23.75;50.71;100414.91;5004032;28;20045;-75
2023/07/16 08:52:53;;;;;;;4.68;2.72;;;;;;;23.93;49.16;100406.75;5012137;28;20042;-74
2023/07/16 08:55:23;;;;;;;6.28;2.42;;;;;;;24.18;48.23;100414.03;5012279;28;20049;-74
2023/07/16 08:57:51;;;;;;;6.47;3.00;;;;;;;23.94;47.30;100419.25;5018776;28;20050;-75
2023/07/16 09:00:18;;;;;;;7.20;2.85;;;;;;;22.93;50.29;100425.84;5009075;28;20133;-74
2023/07/16 09:02:45;;;;;;;8.73;2.88;;;;;;;22.85;53.92;100418.47;5005180;28;20129;-74
2023/07/16 09:05:15;;;;;;;5.13;2.75;;;;;;;23.10;53.24;100422.34;5004679;28;20069;-75
2023/07/16 09:08:01;;;;;;;9.10;2.75;;;;;;;23.32;51.59;100421.88;4988277;28;20054;-75
2023/07/16 09:10:29;;;;;;;8.18;2.95;;;;;;;22.82;51.77;100412.56;5005081;28;20105;-75
2023/07/16 09:12:58;;;;;;;4.07;2.78;;;;;;;22.68;51.85;100436.28;5010057;28;20542;-75
2023/07/16 09:15:30;;;;;;;4.53;2.83;;;;;;;22.57;51.96;100433.78;4991507;28;20049;-75
2023/07/16 09:17:57;;;;;;;9.23;2.75;;;;;;;22.48;52.79;100437.38;5003874;28;20073;-75
2023/07/16 09:20:25;;;;;;;8.02;2.63;;;;;;;22.51;54.20;100436.25;4982005;28;20114;-76
2023/07/16 09:22:55;;;;;;;9.13;2.72;;;;;;;22.21;54.60;100427.34;5006644;28;20049;-74
2023/07/16 09:25:29;;;;;;;5.18;2.45;;;;;;;22.39;52.38;100435.53;5004294;28;20104;-75
2023/07/16 09:28:01;;;;;;;6.90;2.80;;;;;;;22.43;52.41;100433.41;5007313;28;20054;-74
2023/07/16 09:30:33;;;;;;;6.63;3.08;;;;;;;22.20;53.18;100411.31;5027342;28;20922;-76
2023/07/16 09:33:17;;;;;;;8.45;3.38;;;;;;;22.26;51.05;100429.63;5015455;28;20410;-75
2023/07/16 09:35:44;;;;;;;9.00;2.67;;;;;;;22.32;51.93;100438.00;5014016;28;20049;-74
2023/07/16 09:38:11;;;;;;;6.80;2.38;;;;;;;22.46;51.22;100428.59;4990262;28;20048;-76
2023/07/16 09:40:39;;;;;;;5.88;2.60;;;;;;;22.94;50.86;100427.56;5003426;28;20057;-76
2023/07/16 09:43:07;;;;;;;6.78;2.58;;;;;;;23.30;48.74;100429.28;5021364;28;20569;-72
2023/07/16 09:45:35;;;;;;;5.53;2.40;;;;;;;23.54;48.60;100430.59;5024546;28;20045;-72
2023/07/16 09:48:05;;;;;;;4.63;2.70;;;;;;;23.79;47.29;100424.38;5012651;28;20498;-73
2023/07/16 09:50:33;;;;;;;4.13;2.70;;;;;;;23.99;47.31;100425.91;5000572;28;20402;-71
2023/07/16 09:53:02;;;;;;;6.28;2.45;;;;;;;24.01;46.25;100434.72;5016900;28;20061;-72
2023/07/16 09:55:32;;;;;;;6.45;3.05;;;;;;;23.24;47.17;100434.47;5022679;28;20497;-73
2023/07/16 09:58:01;;;;;;;4.95;2.65;;;;;;;23.08;49.42;100418.94;5025307;28;20057;-71
2023/07/16 10:00:29;;;;;;;8.77;2.67;;;;;;;23.09;49.07;100426.03;5020527;28;20105;-72
2023/07/16 10:02:57;;;;;;;6.72;2.72;;;;;;;23.15;48.54;100422.72;5026896;28;20498;-72
2023/07/16 10:05:27;;;;;;;4.28;2.80;;;;;;;23.25;48.27;100423.50;5013803;28;20052;-73
2023/07/16 10:07:58;;;;;;;4.28;2.28;;;;;;;23.37;47.64;100416.88;5009156;28;20060;-73
2023/07/16 10:10:43;;;;;;;5.10;2.70;;;;;;;23.39;46.80;100428.38;5008147;28;20105;-72
2023/07/16 10:13:13;;;;;;;4.90;2.78;;;;;;;23.40;46.35;100408.47;5016642;28;20045;-73
2023/07/16 10:15:53;;;;;;;9.13;3.00;;;;;;;23.75;45.67;100428.44;5013217;28;20069;-73
2023/07/16 10:18:34;;;;;;;7.55;2.25;;;;;;;24.06;44.76;100424.28;5027748;28;20053;-73
2023/07/16 10:21:08;;;;;;;7.18;2.50;;;;;;;24.35;44.96;100424.00;5014639;28;20041;-74
2023/07/16 10:23:43;;;;;;;8.00;2.88;;;;;;;24.31;43.52;100417.19;5014928;28;20042;-72
2023/07/16 10:26:12;;;;;;;7.97;3.30;;;;;;;23.93;45.99;100412.16;5013897;28;20050;-73
2023/07/16 10:28:44;;;;;;;8.38;2.65;;;;;;;24.24;45.07;100418.00;5015377;28;20066;-73
2023/07/16 10:31:22;;;;;;;5.38;2.40;;;;;;;24.57;44.69;100417.16;5009330;28;20053;-73
2023/07/16 10:34:21;;;;;;;5.20;2.65;;;;;;;24.89;43.33;100418.31;5013132;28;20065;-74
2023/07/16 10:36:50;;;;;;;7.65;2.80;;;;;;;24.48;43.40;100421.69;4999224;28;20047;-72
2023/07/16 10:39:17;;;;;;;5.05;2.72;;;;;;;23.98;43.62;100389.03;4995703;28;20459;-72
2023/07/16 10:41:44;;;;;;;6.45;2.67;;;;;;;24.29;42.90;100418.34;5012973;28;20723;-73
2023/07/16 10:44:14;;;;;;;7.53;3.13;;;;;;;24.48;41.69;100424.41;5013128;28;20050;-72
2023/07/16 10:46:41;;;;;;;;;;;;;;;24.58;40.86;100418.84;5008269;28;20073;-71
2023/07/16 10:49:08;;;;;;;5.30;2.63;;;;;;;24.51;41.69;100419.69;5002577;28;20297;-72
2023/07/16 10:51:35;;;;;;;5.20;3.10;;;;;;;24.61;43.60;100412.28;5008347;28;20060;-73
2023/07/16 10:54:05;;;;;;;5.82;2.90;;;;;;;25.04;42.61;100405.88;5006617;28;20156;-72
2023/07/16 10:56:37;;;;;;;7.40;2.97;;;;;;;25.24;39.81;100422.69;5004061;28;20078;-72
2023/07/16 10:59:04;;;;;;;7.18;2.90;;;;;;;25.17;39.61;100403.56;4995599;28;20161;-71
2023/07/16 11:01:32;;;;;;;5.30;2.35;;;;;;;;;;5003448;28;20057;-73
2023/07/16 11:04:07;;;;;;;6.05;2.55;;;;;;;24.85;39.87;100409.69;5008559;28;20070;-73
2023/07/16 11:06:35;;;;;;;7.95;3.15;;;;;;;24.87;40.73;100409.53;5006648;28;20495;-72
2023/07/16 11:09:09;;;;;;;6.55;3.78;;;;;;;24.88;40.91;100420.19;5002622;28;20048;-73
2023/07/16 11:11:36;;;;;;;5.82;3.17;;;;;;;24.65;41.53;100419.06;4979935;28;20049;-74
2023/07/16 11:14:07;;;;;;;6.20;2.97;;;;;;;24.32;42.00;100415.34;4995560;28;20046;-73
2023/07/16 11:16:35;;;;;;;6.25;3.60;;;;;;;24.38;42.35;100410.16;5005126;28;20486;-72
2023/07/16 11:19:06;;;;;;;7.32;3.88;;;;;;;24.14;42.76;100401.84;4996130;28;20494;-73
2023/07/16 11:21:37;;;;;;;4.75;2.80;;;;;;;24.21;44.09;100411.03;4998719;28;20415;-74
2023/07/16 11:24:12;;;;;;;6.95;2.80;;;;;;;24.51;42.61;100419.69;4994154;28;20095;-74
2023/07/16 11:26:48;;;;;;;4.45;2.40;;;;;;;24.67;41.00;100409.78;5012742;28;20097;-74